createdAt,value
2019-05-17T00:00:47.581Z,97.80
2019-05-17T00:03:17.146Z,97.60
2019-05-17T00:05:47.085Z,97.60
2019-05-17T00:08:24.446Z,97.70
2019-05-17T00:10:47.501Z,97.60
2019-05-17T00:13:17.433Z,97.70
2019-05-17T00:15:47.548Z,97.80
2019-05-17T00:18:17.246Z,98.10
2019-05-17T00:20:47.290Z,98.30
2019-05-17T00:23:17.400Z,98.20
2019-05-17T00:25:47.355Z,98.10
2019-05-17T00:28:16.632Z,98.30
2019-05-17T00:30:46.577Z,98.40
2019-05-17T00:33:16.980Z,98.50
2019-05-17T00:35:47.082Z,98.80
2019-05-17T00:38:16.950Z,98.80
2019-05-17T00:40:47.163Z,98.70
2019-05-17T00:43:17.039Z,98.60
2019-05-17T00:45:47.082Z,98.70
2019-05-17T00:48:17.235Z,98.80
2019-05-17T00:50:53.276Z,98.70
2019-05-17T00:53:18.281Z,98.60
2019-05-17T00:55:47.614Z,98.60
2019-05-17T00:58:17.447Z,98.50
2019-05-17T01:00:48.012Z,98.40
2019-05-17T01:03:17.977Z,98.30
2019-05-17T01:05:47.438Z,98.20
2019-05-17T01:08:17.575Z,98.10
2019-05-17T01:10:47.588Z,97.90
2019-05-17T01:13:17.514Z,97.90
2019-05-17T01:15:47.391Z,98.00
2019-05-17T01:18:17.390Z,97.90
2019-05-17T01:20:47.434Z,97.90
2019-05-17T01:23:17.480Z,97.90
2019-05-17T01:25:48.164Z,97.90
2019-05-17T01:28:17.891Z,97.90
2019-05-17T01:30:47.703Z,97.90
2019-05-17T01:33:17.297Z,97.90
2019-05-17T01:35:47.296Z,98.10
2019-05-17T01:38:17.679Z,98.10
2019-05-17T01:40:47.793Z,98.20
2019-05-17T01:43:17.079Z,98.10
2019-05-17T01:45:48.084Z,98.10
2019-05-17T01:48:17.488Z,98.20
2019-05-17T01:50:46.836Z,98.40
2019-05-17T01:53:16.612Z,98.50
2019-05-17T01:55:46.837Z,98.60
2019-05-17T01:58:16.457Z,98.50
2019-05-17T02:00:46.694Z,98.50
2019-05-17T02:03:17.327Z,98.40
2019-05-17T02:05:47.510Z,98.40
2019-05-17T02:08:17.467Z,99.00
2019-05-17T02:10:46.867Z,99.00
2019-05-17T02:13:16.559Z,98.40
2019-05-17T02:15:46.998Z,98.90
2019-05-17T02:18:17.482Z,99.00
2019-05-17T02:20:47.467Z,99.00
2019-05-17T02:23:17.372Z,99.10
2019-05-17T02:25:47.621Z,99.00
2019-05-17T02:28:16.952Z,99.10
2019-05-17T02:30:47.322Z,99.00
2019-05-17T02:33:17.462Z,99.00
2019-05-17T02:35:46.794Z,99.00
2019-05-17T02:38:16.153Z,98.90
2019-05-17T02:40:45.488Z,98.80
2019-05-17T02:43:14.842Z,98.90
2019-05-17T02:45:44.247Z,98.80
2019-05-17T02:48:13.633Z,98.80
2019-05-17T02:50:47.950Z,98.80
2019-05-17T02:53:15.574Z,98.80
2019-05-17T02:55:46.107Z,98.70
2019-05-17T02:58:15.385Z,98.80
2019-05-17T03:00:44.744Z,98.80
2019-05-17T03:03:14.011Z,98.90
2019-05-17T03:05:43.393Z,98.90
2019-05-17T03:08:13.826Z,98.90
2019-05-17T03:10:43.459Z,99.00
2019-05-17T03:13:17.731Z,98.90
2019-05-17T03:15:44.434Z,99.00
2019-05-17T03:18:14.182Z,98.90
2019-05-17T03:20:43.526Z,99.00
2019-05-17T03:23:12.922Z,99.10
2019-05-17T03:25:44.064Z,99.00
2019-05-17T03:28:33.740Z,98.90
2019-05-17T03:31:08.059Z,99.00
2019-05-17T03:33:37.043Z,99.10
2019-05-17T03:36:07.600Z,99.10
2019-05-17T03:38:37.807Z,99.10
2019-05-17T03:41:18.224Z,99.30
2019-05-17T03:43:43.383Z,99.30
2019-05-17T03:46:13.609Z,99.30
2019-05-17T03:48:43.528Z,99.50
2019-05-17T03:51:13.161Z,99.60
2019-05-17T03:53:44.249Z,99.50
2019-05-17T03:56:14.341Z,99.50
2019-05-17T03:58:43.724Z,99.40
2019-05-17T04:01:13.971Z,99.10
2019-05-17T04:03:44.281Z,99.10
2019-05-17T04:06:14.457Z,99.00
2019-05-17T04:08:43.854Z,98.90
2019-05-17T04:11:22.469Z,98.80
2019-05-17T04:13:44.268Z,98.80
2019-05-17T04:16:14.200Z,98.60
2019-05-17T04:18:44.226Z,98.60
2019-05-17T04:21:13.721Z,98.60
2019-05-17T04:23:43.206Z,98.40
2019-05-17T04:26:13.697Z,98.50
2019-05-17T04:28:44.242Z,98.40
2019-05-17T04:31:14.229Z,98.40
2019-05-17T04:33:43.621Z,98.30
2019-05-17T04:36:13.323Z,98.30
2019-05-17T04:38:43.766Z,98.30
2019-05-17T04:41:13.792Z,98.50
2019-05-17T04:43:43.356Z,98.30
2019-05-17T04:46:13.120Z,98.40
2019-05-17T04:48:43.898Z,98.40
2019-05-17T04:51:13.569Z,98.30
2019-05-17T04:53:43.301Z,98.30
2019-05-17T04:56:14.112Z,98.10
2019-05-17T04:58:44.286Z,98.00
2019-05-17T05:01:13.712Z,98.20
2019-05-17T05:03:43.299Z,97.60
2019-05-17T05:06:13.618Z,97.70
2019-05-17T05:08:43.737Z,97.90
2019-05-17T05:11:13.135Z,98.00
2019-05-17T05:13:42.829Z,98.10
2019-05-17T05:16:13.428Z,98.30
2019-05-17T05:18:43.745Z,98.60
2019-05-17T05:21:13.124Z,98.90
2019-05-17T05:23:42.580Z,98.60
2019-05-17T05:26:12.529Z,98.80
2019-05-17T05:28:42.072Z,98.90
2019-05-17T05:31:13.351Z,99.00
2019-05-17T05:33:43.141Z,98.90
2019-05-17T05:36:12.459Z,98.90
2019-05-17T05:38:42.253Z,98.50
2019-05-17T05:41:12.378Z,98.30
2019-05-17T05:43:42.066Z,99.30
2019-05-17T05:46:12.011Z,99.90
2019-05-17T05:48:41.719Z,99.40
2019-05-17T05:51:13.658Z,97.70
2019-05-17T05:53:42.913Z,95.30
2019-05-17T05:56:13.263Z,94.30
2019-05-17T05:58:43.473Z,93.90
2019-05-17T06:01:13.008Z,94.10
2019-05-17T06:03:43.018Z,94.30
2019-05-17T06:06:12.493Z,93.80
2019-05-17T06:08:42.658Z,92.90
2019-05-17T06:11:12.409Z,92.60
2019-05-17T06:13:42.464Z,92.90
2019-05-17T06:16:12.057Z,92.80
2019-05-17T06:18:42.517Z,92.30
2019-05-17T06:21:12.586Z,91.70
2019-05-17T06:23:42.512Z,92.10
2019-05-17T06:26:12.671Z,91.30
2019-05-17T06:28:42.657Z,91.10
2019-05-17T06:31:12.094Z,91.30
2019-05-17T06:33:42.229Z,91.60
2019-05-17T06:36:13.689Z,90.90
2019-05-17T06:38:44.341Z,90.80
2019-05-17T06:41:13.710Z,90.40
2019-05-17T06:43:43.070Z,90.50
2019-05-17T06:46:12.575Z,90.00
2019-05-17T06:48:42.570Z,89.40
2019-05-17T06:51:11.976Z,90.50
2019-05-17T06:53:43.569Z,89.50
2019-05-17T06:56:12.980Z,88.30
2019-05-17T06:58:42.761Z,88.00
2019-05-17T07:01:12.235Z,87.80
2019-05-17T07:03:41.531Z,86.80
2019-05-17T07:06:13.085Z,88.50
2019-05-17T07:08:42.546Z,86.40
2019-05-17T07:11:11.935Z,86.30
2019-05-17T07:13:41.262Z,87.10
2019-05-17T07:16:10.799Z,87.10
2019-05-17T07:18:40.510Z,88.30
2019-05-17T07:21:10.642Z,87.80
2019-05-17T07:23:40.034Z,83.40
2019-05-17T07:26:11.996Z,86.20
2019-05-17T07:28:40.569Z,85.80
2019-05-17T07:31:10.513Z,83.80
2019-05-17T07:33:40.014Z,81.10
2019-05-17T07:36:10.152Z,84.50
2019-05-17T07:38:40.213Z,82.70
2019-05-17T07:41:10.202Z,80.90
2019-05-17T07:43:40.521Z,81.60
2019-05-17T07:46:10.557Z,82.10
2019-05-17T07:48:40.483Z,81.30
2019-05-17T07:51:10.557Z,82.40
2019-05-17T07:53:40.194Z,81.50
2019-05-17T07:56:10.370Z,83.00
2019-05-17T07:58:40.594Z,80.70
2019-05-17T08:01:10.593Z,79.40
2019-05-17T08:03:40.630Z,79.60
2019-05-17T08:06:10.855Z,83.60
2019-05-17T08:08:41.180Z,84.60
2019-05-17T08:11:11.317Z,82.30
2019-05-17T08:13:40.812Z,80.80
2019-05-17T08:16:10.446Z,80.90
2019-05-17T08:18:40.555Z,83.90
2019-05-17T08:21:10.345Z,82.50
2019-05-17T08:23:40.493Z,83.50
2019-05-17T08:26:10.718Z,82.80
2019-05-17T08:28:40.934Z,78.10
2019-05-17T08:31:10.294Z,82.00
2019-05-17T08:33:40.615Z,80.50
2019-05-17T08:36:10.731Z,81.30
2019-05-17T08:38:40.073Z,80.50
2019-05-17T08:41:10.577Z,81.30
2019-05-17T08:43:46.587Z,77.40
2019-05-17T08:46:11.454Z,78.60
2019-05-17T08:48:40.866Z,82.70
2019-05-17T08:51:10.746Z,81.00
2019-05-17T08:53:40.895Z,80.50
2019-05-17T08:56:10.256Z,78.50
2019-05-17T08:58:40.332Z,79.70
2019-05-17T09:01:11.140Z,77.10
2019-05-17T09:03:41.383Z,75.60
2019-05-17T09:06:12.608Z,78.70
2019-05-17T09:08:42.510Z,76.50
2019-05-17T09:11:11.930Z,74.10
2019-05-17T09:13:54.615Z,77.50
2019-05-17T09:16:12.473Z,75.60
2019-05-17T09:18:42.023Z,74.30
2019-05-17T09:21:11.647Z,76.80
2019-05-17T09:23:40.992Z,74.00
2019-05-17T09:26:10.345Z,73.40
2019-05-17T09:28:39.710Z,77.10
2019-05-17T09:31:10.418Z,73.70
2019-05-17T09:33:40.684Z,74.10
2019-05-17T09:36:10.958Z,76.30
2019-05-17T09:38:40.547Z,75.00
2019-05-17T09:41:10.622Z,74.80
2019-05-17T09:43:40.342Z,71.90
2019-05-17T09:46:10.845Z,76.40
2019-05-17T09:48:40.809Z,74.20
2019-05-17T09:51:10.576Z,76.60
2019-05-17T09:53:40.481Z,75.80
2019-05-17T09:56:10.076Z,74.50
2019-05-17T09:58:40.794Z,72.80
2019-05-17T10:01:10.262Z,74.10
2019-05-17T10:03:39.864Z,71.00
2019-05-17T10:06:09.868Z,71.00
2019-05-17T10:08:39.480Z,75.20
2019-05-17T10:11:12.191Z,74.60
2019-05-17T10:13:41.141Z,71.90
2019-05-17T10:16:10.553Z,72.80
2019-05-17T10:18:40.185Z,73.60
2019-05-17T10:21:10.465Z,72.30
2019-05-17T10:23:40.651Z,75.40
2019-05-17T10:26:10.800Z,73.70
2019-05-17T10:28:40.203Z,74.50
2019-05-17T10:31:11.215Z,72.00
2019-05-17T10:33:40.697Z,74.50
2019-05-17T10:36:10.138Z,75.50
2019-05-17T10:38:39.626Z,77.30
2019-05-17T10:41:10.288Z,75.30
2019-05-17T10:43:39.638Z,73.90
2019-05-17T10:46:10.509Z,73.40
2019-05-17T10:48:41.075Z,74.80
2019-05-17T10:51:13.359Z,73.50
2019-05-17T10:53:41.872Z,74.90
2019-05-17T10:56:11.226Z,72.60
2019-05-17T10:58:40.756Z,73.60
2019-05-17T11:01:10.837Z,72.60
2019-05-17T11:03:40.241Z,74.60
2019-05-17T11:06:10.988Z,77.60
2019-05-17T11:08:41.973Z,75.40
2019-05-17T11:11:11.339Z,70.60
2019-05-17T11:13:40.685Z,70.30
2019-05-17T11:16:10.061Z,69.90
2019-05-17T11:18:39.429Z,71.70
2019-05-17T11:21:08.794Z,70.80
2019-05-17T11:23:38.142Z,69.20
2019-05-17T11:26:07.495Z,71.20
2019-05-17T11:28:36.862Z,70.80
2019-05-17T11:31:06.274Z,68.40
2019-05-17T11:33:35.673Z,65.70
2019-05-17T11:36:05.093Z,66.90
2019-05-17T11:38:34.459Z,70.00
2019-05-17T11:41:19.799Z,66.30
2019-05-17T11:43:34.930Z,66.30
2019-05-17T11:46:04.766Z,67.10
2019-05-17T11:48:34.147Z,65.80
2019-05-17T11:51:03.573Z,65.50
2019-05-17T11:53:32.927Z,68.60
2019-05-17T11:56:02.356Z,66.50
2019-05-17T11:58:31.801Z,66.10
2019-05-17T12:01:01.318Z,66.40
2019-05-17T12:03:30.693Z,67.80
2019-05-17T12:06:00.054Z,65.30
2019-05-17T12:08:29.341Z,67.90
2019-05-17T12:10:58.912Z,65.40
2019-05-17T12:13:29.579Z,67.20
2019-05-17T12:15:58.947Z,62.50
2019-05-17T12:18:28.286Z,64.30
2019-05-17T12:20:57.694Z,66.30
2019-05-17T12:23:27.153Z,61.40
2019-05-17T12:25:56.506Z,67.00
2019-05-17T12:28:25.798Z,62.40
2019-05-17T12:30:55.139Z,64.10
2019-05-17T12:33:24.481Z,63.90
2019-05-17T12:35:53.829Z,64.20
2019-05-17T12:38:23.173Z,66.50
2019-05-17T12:40:53.507Z,65.80
2019-05-17T12:43:22.781Z,60.00
2019-05-17T12:46:00.167Z,60.20
2019-05-17T12:48:23.123Z,60.10
2019-05-17T12:50:52.473Z,60.50
2019-05-17T12:53:21.753Z,60.60
2019-05-17T12:55:51.074Z,60.10
2019-05-17T12:58:20.501Z,62.30
2019-05-17T13:00:49.834Z,59.20
2019-05-17T13:03:19.118Z,58.40
2019-05-17T13:05:48.458Z,57.40
2019-05-17T13:08:17.799Z,57.30
2019-05-17T13:10:47.078Z,57.50
2019-05-17T13:13:16.505Z,57.80
2019-05-17T13:15:45.882Z,59.20
2019-05-17T13:18:15.225Z,58.40
2019-05-17T13:20:44.504Z,57.50
2019-05-17T13:23:13.792Z,56.60
2019-05-17T13:25:43.208Z,55.40
2019-05-17T13:28:12.562Z,53.30
2019-05-17T13:30:41.883Z,55.30
2019-05-17T13:33:11.206Z,57.50
2019-05-17T13:35:40.616Z,56.60
2019-05-17T13:38:10.101Z,55.70
2019-05-17T13:40:40.230Z,57.30
2019-05-17T13:43:10.386Z,59.10
2019-05-17T13:45:39.792Z,55.10
2019-05-17T13:48:10.176Z,54.90
2019-05-17T13:50:39.578Z,53.60
2019-05-17T13:53:08.925Z,51.60
2019-05-17T13:55:38.306Z,53.50
2019-05-17T13:58:07.634Z,53.40
2019-05-17T14:00:36.965Z,54.10
2019-05-17T14:03:06.302Z,52.70
2019-05-17T14:05:35.605Z,53.40
2019-05-17T14:08:05.393Z,54.00
2019-05-17T14:10:34.724Z,50.20
2019-05-17T14:13:04.097Z,51.50
2019-05-17T14:15:33.606Z,51.10
2019-05-17T14:18:03.026Z,54.10
2019-05-17T14:20:32.360Z,51.80
2019-05-17T14:23:01.763Z,51.90
2019-05-17T14:25:31.232Z,52.10
2019-05-17T14:28:00.624Z,52.70
2019-05-17T14:30:29.966Z,51.50
2019-05-17T14:32:59.327Z,52.00
2019-05-17T14:35:28.629Z,51.40
2019-05-17T14:37:58.054Z,51.40
2019-05-17T14:41:00.536Z,52.60
2019-05-17T14:42:58.390Z,52.30
2019-05-17T14:45:27.777Z,51.10
2019-05-17T14:47:57.173Z,52.10
2019-05-17T14:50:26.542Z,53.10
2019-05-17T14:52:55.903Z,51.70
2019-05-17T14:55:25.253Z,52.00
2019-05-17T14:57:54.665Z,51.80
2019-05-17T15:00:23.943Z,53.20
2019-05-17T15:02:53.290Z,52.40
2019-05-17T15:05:22.581Z,51.60
2019-05-17T15:07:51.919Z,53.40
2019-05-17T15:10:21.198Z,53.80
2019-05-17T15:12:50.529Z,54.10
2019-05-17T15:15:25.844Z,53.20
2019-05-17T15:17:50.957Z,51.90
2019-05-17T15:20:20.279Z,51.60
2019-05-17T15:22:49.646Z,53.10
2019-05-17T15:25:18.926Z,53.90
2019-05-17T15:27:48.242Z,53.70
2019-05-17T15:30:18.138Z,54.20
2019-05-17T15:32:47.467Z,52.80
2019-05-17T15:35:16.739Z,52.20
2019-05-17T15:37:46.108Z,52.40
2019-05-17T15:40:15.451Z,52.80
2019-05-17T15:42:44.976Z,52.70
2019-05-17T15:45:14.674Z,53.40
2019-05-17T15:47:43.998Z,52.70
2019-05-17T15:50:13.886Z,53.50
2019-05-17T15:52:43.217Z,53.20
2019-05-17T15:55:13.510Z,52.50
2019-05-17T15:57:42.850Z,53.30
2019-05-17T16:00:13.737Z,51.40
2019-05-17T16:02:43.139Z,51.50
2019-05-17T16:05:12.916Z,51.40
2019-05-17T16:07:42.235Z,51.20
2019-05-17T16:10:12.107Z,51.50
2019-05-17T16:12:41.445Z,52.30
2019-05-17T16:15:11.585Z,53.70
2019-05-17T16:17:40.974Z,52.70
2019-05-17T16:20:16.544Z,54.70
2019-05-17T16:22:42.171Z,56.00
2019-05-17T16:25:11.924Z,57.80
2019-05-17T16:27:41.333Z,59.00
2019-05-17T16:30:11.462Z,60.40
2019-05-17T16:32:40.898Z,60.00
2019-05-17T16:35:10.703Z,62.60
2019-05-17T16:37:40.046Z,63.00
2019-05-17T16:40:10.542Z,64.20
2019-05-17T16:42:39.879Z,65.30
2019-05-17T16:45:11.433Z,66.30
2019-05-17T16:47:40.769Z,67.10
2019-05-17T16:50:10.853Z,68.20
2019-05-17T16:52:40.258Z,68.90
2019-05-17T16:55:09.606Z,69.30
2019-05-17T16:57:39.235Z,68.80
2019-05-17T17:00:27.229Z,69.80
2019-05-17T17:02:57.349Z,69.90
2019-05-17T17:05:26.669Z,69.70
2019-05-17T17:07:56.806Z,71.30
2019-05-17T17:10:26.546Z,71.30
2019-05-17T17:12:55.831Z,71.10
2019-05-17T17:15:25.239Z,71.40
2019-05-17T17:17:54.514Z,73.50
2019-05-17T17:20:25.037Z,73.30
2019-05-17T17:22:54.318Z,73.80
2019-05-17T17:25:24.118Z,75.00
2019-05-17T17:27:54.568Z,74.70
2019-05-17T17:30:24.295Z,74.90
2019-05-17T17:32:53.564Z,75.00
2019-05-17T17:35:22.901Z,75.30
2019-05-17T17:37:52.210Z,75.40
2019-05-17T17:40:22.594Z,75.50
2019-05-17T17:42:51.951Z,75.90
2019-05-17T17:45:24.247Z,75.00
2019-05-17T17:47:53.519Z,75.50
2019-05-17T17:50:23.911Z,75.80
2019-05-17T17:52:53.342Z,75.70
2019-05-17T17:55:23.559Z,76.60
2019-05-17T17:57:52.885Z,77.10
2019-05-17T18:00:23.246Z,77.30
2019-05-17T18:02:52.569Z,77.50
2019-05-17T18:05:24.935Z,78.20
2019-05-17T18:07:52.893Z,78.20
2019-05-17T18:10:34.102Z,78.00
2019-05-17T18:13:03.390Z,78.30
2019-05-17T18:15:38.024Z,78.70
2019-05-17T18:18:07.379Z,78.80
2019-05-17T18:20:37.008Z,79.50
2019-05-17T18:23:06.357Z,79.40
2019-05-17T18:25:36.323Z,79.30
2019-05-17T18:28:06.989Z,79.60
2019-05-17T18:30:37.257Z,80.40
2019-05-17T18:33:07.267Z,80.90
2019-05-17T18:35:37.273Z,80.90
2019-05-17T18:38:08.147Z,81.00
2019-05-17T18:40:37.521Z,81.30
2019-05-17T18:43:06.864Z,81.30
2019-05-17T18:45:36.206Z,81.70
2019-05-17T18:48:05.493Z,81.90
2019-05-17T18:50:35.223Z,82.50
2019-05-17T18:53:06.089Z,82.20
2019-05-17T18:55:36.079Z,83.10
2019-05-17T18:58:05.390Z,83.40
2019-05-17T19:00:34.703Z,83.60
2019-05-17T19:03:04.121Z,83.90
2019-05-17T19:05:33.489Z,84.40
2019-05-17T19:08:02.891Z,84.70
2019-05-17T19:10:33.318Z,84.80
2019-05-17T19:13:02.701Z,85.30
2019-05-17T19:15:32.109Z,85.90
2019-05-17T19:18:01.399Z,86.40
2019-05-17T19:20:30.730Z,86.40
2019-05-17T19:23:00.006Z,86.80
2019-05-17T19:25:29.329Z,86.90
2019-05-17T19:27:58.606Z,87.00
2019-05-17T19:30:27.970Z,87.40
2019-05-17T19:32:57.286Z,87.70
2019-05-17T19:35:26.643Z,87.60
2019-05-17T19:37:55.977Z,88.00
2019-05-17T19:40:25.717Z,87.90
2019-05-17T19:42:55.149Z,88.20
2019-05-17T19:45:24.563Z,88.00
2019-05-17T19:47:53.909Z,88.30
2019-05-17T19:50:23.416Z,88.60
2019-05-17T19:52:52.993Z,88.60
2019-05-17T19:55:22.779Z,88.70
2019-05-17T19:57:52.210Z,88.50
2019-05-17T20:00:24.357Z,88.70
2019-05-17T20:02:53.748Z,88.20
2019-05-17T20:05:23.779Z,88.10
2019-05-17T20:07:53.249Z,88.50
2019-05-17T20:10:23.101Z,88.70
2019-05-17T20:12:52.449Z,89.10
2019-05-17T20:15:33.587Z,88.80
2019-05-17T20:17:52.946Z,89.00
2019-05-17T20:20:22.397Z,89.60
2019-05-17T20:22:51.884Z,89.80
2019-05-17T20:25:22.114Z,90.10
2019-05-17T20:27:51.502Z,90.20
2019-05-17T20:30:21.593Z,90.30
2019-05-17T20:32:51.143Z,90.30
2019-05-17T20:35:21.202Z,90.30
2019-05-17T20:37:50.912Z,90.30
2019-05-17T20:40:21.231Z,89.90
2019-05-17T20:42:51.028Z,90.30
2019-05-17T20:45:32.676Z,90.30
2019-05-17T20:47:52.583Z,90.30
2019-05-17T20:50:22.359Z,90.40
2019-05-17T20:52:51.641Z,90.40
2019-05-17T20:55:21.094Z,90.30
2019-05-17T20:57:50.672Z,90.30
2019-05-17T21:00:21.221Z,90.20
2019-05-17T21:02:50.764Z,90.50
2019-05-17T21:05:20.785Z,90.50
2019-05-17T21:07:50.569Z,90.70
2019-05-17T21:10:20.208Z,90.90
2019-05-17T21:12:49.609Z,91.10
2019-05-17T21:15:18.953Z,91.10
2019-05-17T21:17:48.305Z,91.20
2019-05-17T21:20:18.201Z,91.00
2019-05-17T21:22:47.481Z,90.80
2019-05-17T21:25:16.834Z,91.00
2019-05-17T21:27:46.120Z,91.00
2019-05-17T21:30:16.653Z,91.00
2019-05-17T21:32:45.931Z,91.20
2019-05-17T21:35:17.235Z,90.90
2019-05-17T21:37:46.621Z,91.10
2019-05-17T21:40:16.885Z,91.10
2019-05-17T21:42:46.415Z,91.00
2019-05-17T21:45:16.925Z,90.90
2019-05-17T21:47:46.773Z,90.80
2019-05-17T21:50:16.625Z,90.70
2019-05-17T21:52:46.009Z,90.70
2019-05-17T21:55:15.409Z,90.60
2019-05-17T21:57:44.818Z,90.70
2019-05-17T22:00:20.229Z,90.90
2019-05-17T22:02:49.688Z,90.90
2019-05-17T22:05:19.026Z,90.80
2019-05-17T22:07:48.382Z,91.00
2019-05-17T22:10:17.721Z,91.10
2019-05-17T22:12:47.072Z,91.00
2019-05-17T22:15:16.421Z,91.00
2019-05-17T22:17:45.774Z,91.10
2019-05-17T22:20:15.196Z,90.90
2019-05-17T22:22:45.194Z,90.80
2019-05-17T22:25:14.553Z,90.80
2019-05-17T22:27:43.941Z,90.80
2019-05-17T22:30:13.756Z,90.70
2019-05-17T22:32:43.141Z,90.70
2019-05-17T22:35:12.815Z,90.70
2019-05-17T22:37:42.220Z,90.80
2019-05-17T22:40:12.325Z,90.90
2019-05-17T22:42:41.738Z,90.90
2019-05-17T22:45:13.026Z,91.30
2019-05-17T22:47:42.458Z,91.60
2019-05-17T22:50:12.209Z,91.70
2019-05-17T22:52:41.618Z,91.70
2019-05-17T22:55:11.024Z,91.60
2019-05-17T22:57:40.445Z,91.70
2019-05-17T23:00:10.409Z,91.40
2019-05-17T23:02:39.893Z,91.60
2019-05-17T23:05:09.204Z,91.50
2019-05-17T23:07:38.609Z,91.50
2019-05-17T23:10:08.869Z,91.50
2019-05-17T23:12:38.274Z,91.40
2019-05-17T23:15:08.945Z,91.40
2019-05-17T23:17:38.280Z,91.30
2019-05-17T23:20:09.136Z,91.80
2019-05-17T23:22:38.637Z,91.70
2019-05-17T23:25:08.155Z,92.10
2019-05-17T23:27:37.429Z,92.00
2019-05-17T23:30:07.834Z,91.80
2019-05-17T23:32:37.185Z,92.10
2019-05-17T23:35:07.172Z,91.60
2019-05-17T23:37:36.453Z,91.90
2019-05-17T23:40:07.173Z,91.70
2019-05-17T23:42:36.481Z,91.70
2019-05-17T23:45:07.355Z,91.80
2019-05-17T23:47:36.714Z,91.90
2019-05-17T23:50:07.373Z,91.90
2019-05-17T23:52:36.647Z,91.80
2019-05-17T23:55:07.238Z,91.70
2019-05-17T23:57:36.522Z,91.60
